Moyie, Canada
Current Conditions -  °F | °C
As of 3:00 AM on Sunday 26 Oct 2014 (Local Time) from CYXC Reporting Station
Light Rain Light Rain  
Wind Chill: 42°   Ceiling: 4600
Heat Index: 46°   Visibility: 6mi
Dew Point: 43°   Wind: 9mph
Humidity: 87%   Direction: 140°SE
Pressure: 29.53"   Gusts: NA
Location:  49.28°N, 115.83°W
Report Text: CYXC 260900Z 14008KT 6SM -RA BR BKN046 OVC100 08/06 A2953 RMK SC6AC2 SLP008 DENSITY ALT 3400FT
Loading
Personal Weather Stations






























Interactive Weather Map
Tropical Storm Tracking
New forecast layout! Learn more

10-Day Weather Forecast

Advertisements
Track Severe Weather on mobile